createdAt,value
2022-08-30T00:02:47.717Z,102103.03
2022-08-30T00:07:50.818Z,102101.78
2022-08-30T00:12:52.793Z,102090.59
2022-08-30T00:17:59.752Z,102090.91
2022-08-30T00:23:01.768Z,102092.19
2022-08-30T00:28:04.196Z,102094.53
2022-08-30T00:33:06.015Z,102086.03
2022-08-30T00:38:08.523Z,102089.22
2022-08-30T00:43:27.770Z,102092.81
2022-08-30T00:48:31.308Z,102081.94
2022-08-30T00:53:38.024Z,102085.75
2022-08-30T00:58:44.071Z,102080.97
2022-08-30T01:03:46.829Z,102094.81
2022-08-30T01:08:48.795Z,102096.94
2022-08-30T01:13:53.806Z,102090.41
2022-08-30T01:18:57.723Z,102088.09
2022-08-30T01:24:02.158Z,102088.91
2022-08-30T01:29:15.498Z,102091.13
2022-08-30T01:34:17.481Z,102086.22
2022-08-30T01:39:19.420Z,102086.25
2022-08-30T01:44:21.150Z,102085.31
2022-08-30T01:49:27.797Z,102079.50
2022-08-30T01:54:33.349Z,102088.25
2022-08-30T01:59:54.066Z,102085.06
2022-08-30T02:05:00.878Z,102086.34
2022-08-30T02:10:04.991Z,102092.78
2022-08-30T02:15:07.706Z,102093.50
2022-08-30T02:20:21.823Z,102084.84
2022-08-30T02:25:23.796Z,102083.59
2022-08-30T02:30:25.599Z,102078.88
2022-08-30T02:35:27.846Z,102079.97
2022-08-30T02:40:31.689Z,102082.94
2022-08-30T02:45:38.214Z,102078.22
2022-08-30T02:50:42.884Z,102066.69
2022-08-30T02:55:44.730Z,102068.81
2022-08-30T03:00:47.464Z,102069.63
2022-08-30T03:05:49.271Z,102068.28
2022-08-30T03:10:51.085Z,102066.75
2022-08-30T03:15:52.722Z,102065.19
2022-08-30T03:20:55.064Z,102062.31
2022-08-30T03:25:57.522Z,102056.00
2022-08-30T03:30:59.317Z,102060.53
2022-08-30T03:36:02.276Z,102064.06
2022-08-30T03:41:05.680Z,102064.16
2022-08-30T03:46:12.578Z,102056.19
2022-08-30T03:51:14.350Z,102054.41
2022-08-30T03:56:24.548Z,102054.97
2022-08-30T04:01:26.398Z,102057.66
2022-08-30T04:06:28.433Z,102065.94
2022-08-30T04:11:30.228Z,102065.94
2022-08-30T04:16:32.126Z,102069.78
2022-08-30T04:21:34.042Z,102071.63
2022-08-30T04:26:44.553Z,102082.28
2022-08-30T04:31:46.773Z,102070.97
2022-08-30T04:36:49.912Z,102078.41
2022-08-30T04:41:52.355Z,102082.47
2022-08-30T04:46:54.261Z,102089.53
2022-08-30T04:51:56.058Z,102079.31
2022-08-30T04:56:57.798Z,102082.63
2022-08-30T05:02:00.163Z,102090.81
2022-08-30T05:07:01.930Z,102089.09
2022-08-30T05:12:03.761Z,102095.69
2022-08-30T05:17:05.489Z,102097.03
2022-08-30T05:22:07.747Z,102101.34
2022-08-30T05:27:09.536Z,102107.97
2022-08-30T05:32:15.210Z,102108.47
2022-08-30T05:37:24.085Z,102118.41
2022-08-30T05:42:26.050Z,102111.31
2022-08-30T05:47:28.379Z,102115.44
2022-08-30T05:52:30.137Z,102113.91
2022-08-30T05:57:33.942Z,102112.16
2022-08-30T06:02:53.583Z,102115.91
2022-08-30T06:08:05.289Z,102122.81
2022-08-30T06:13:07.377Z,102125.22
2022-08-30T06:18:14.658Z,102118.28
2022-08-30T06:23:17.715Z,102122.63
2022-08-30T06:28:19.691Z,102120.69
2022-08-30T06:33:23.666Z,102120.69
2022-08-30T06:38:40.293Z,102112.81
2022-08-30T06:43:50.087Z,102118.19
2022-08-30T06:48:56.168Z,102128.25
2022-08-30T06:53:58.821Z,102127.94
2022-08-30T06:59:01.822Z,102140.09
2022-08-30T07:04:04.786Z,102142.88
2022-08-30T07:09:06.512Z,102135.66
2022-08-30T07:14:38.511Z,102135.53
2022-08-30T07:19:41.402Z,102139.53
2022-08-30T07:24:45.386Z,102131.53
2022-08-30T07:29:49.411Z,102137.59
2022-08-30T07:34:51.740Z,102148.06
2022-08-30T07:39:53.564Z,102143.00
2022-08-30T07:45:04.696Z,102147.97
2022-08-30T07:50:08.800Z,102142.78
2022-08-30T07:55:10.704Z,102147.97
2022-08-30T08:00:12.852Z,102151.44
2022-08-30T08:05:17.348Z,102152.59
2022-08-30T08:10:24.567Z,102153.59
2022-08-30T08:15:26.582Z,102158.63
2022-08-30T08:20:28.785Z,102152.19
2022-08-30T08:25:31.287Z,102161.09
2022-08-30T08:30:36.411Z,102167.28
2022-08-30T08:35:43.221Z,102172.91
2022-08-30T08:41:13.132Z,102157.94
2022-08-30T08:46:41.117Z,102159.66
2022-08-30T08:52:06.862Z,102167.69
2022-08-30T08:57:13.749Z,102170.00
2022-08-30T09:02:29.499Z,102160.59
2022-08-30T09:07:37.091Z,102167.06
2022-08-30T09:12:38.818Z,102168.56
2022-08-30T09:17:49.937Z,102164.03
2022-08-30T09:22:51.612Z,102167.88
2022-08-30T09:28:12.138Z,102175.66
2022-08-30T09:33:21.340Z,102173.50
2022-08-30T09:38:30.451Z,102172.19
2022-08-30T09:43:34.695Z,102172.84
2022-08-30T09:48:45.061Z,102164.22
2022-08-30T09:54:19.314Z,102160.34
2022-08-30T09:59:51.184Z,102167.88
2022-08-30T10:05:01.683Z,102166.34
2022-08-30T10:10:09.385Z,102168.72
2022-08-30T10:15:32.267Z,102171.19
2022-08-30T10:20:56.667Z,102157.72
2022-08-30T10:26:34.321Z,102168.75
2022-08-30T10:31:46.076Z,102169.72
2022-08-30T10:36:55.378Z,102166.28
2022-08-30T10:42:07.823Z,102167.34
2022-08-30T10:47:50.309Z,102163.34
2022-08-30T10:53:10.545Z,102171.34
2022-08-30T10:58:12.796Z,102167.47
2022-08-30T11:03:51.681Z,102162.97
2022-08-30T11:09:08.435Z,102157.25
2022-08-30T11:14:16.059Z,102167.28
2022-08-30T11:19:23.800Z,102173.84
2022-08-30T11:24:27.924Z,102172.09
2022-08-30T11:29:37.460Z,102168.25
2022-08-30T11:34:45.311Z,102177.38
2022-08-30T11:39:47.010Z,102174.47
2022-08-30T11:44:48.680Z,102162.22
2022-08-30T11:50:08.571Z,102171.97
2022-08-30T11:55:45.197Z,102162.00
2022-08-30T12:00:51.429Z,102147.53
2022-08-30T12:05:59.918Z,102147.13
2022-08-30T12:11:26.626Z,102147.31
2022-08-30T12:16:28.348Z,102142.34
2022-08-30T12:21:43.802Z,102155.25
2022-08-30T12:26:49.878Z,102143.06
2022-08-30T12:31:56.339Z,102149.22
2022-08-30T12:37:11.323Z,102144.72
2022-08-30T12:42:35.311Z,102142.22
2022-08-30T12:48:03.414Z,102135.81
2022-08-30T12:53:14.156Z,102139.97
2022-08-30T12:58:16.851Z,102120.69
2022-08-30T13:03:37.505Z,102125.50
2022-08-30T13:08:45.685Z,102116.84
2022-08-30T13:13:52.353Z,102121.09
2022-08-30T13:19:14.966Z,102125.25
2022-08-30T13:24:16.948Z,102132.53
2022-08-30T13:29:22.208Z,102110.28
2022-08-30T13:34:24.027Z,102114.31
2022-08-30T13:39:26.088Z,102115.84
2022-08-30T13:44:28.029Z,102111.84
2022-08-30T13:49:50.692Z,102113.63
2022-08-30T13:54:55.214Z,102108.69
2022-08-30T13:59:57.132Z,102101.66
2022-08-30T14:05:02.833Z,102109.41
2022-08-30T14:10:45.607Z,102090.72
2022-08-30T14:15:28.478Z,102093.66
2022-08-30T14:20:30.651Z,102091.56
2022-08-30T14:25:32.839Z,102088.75
2022-08-30T14:30:34.779Z,102087.91
2022-08-30T14:35:36.623Z,102081.28
2022-08-30T14:40:38.572Z,102081.66
2022-08-30T14:45:40.442Z,102078.47
2022-08-30T14:50:44.076Z,102074.19
2022-08-30T14:55:45.821Z,102083.00
2022-08-30T15:00:52.516Z,102074.06
2022-08-30T15:05:54.440Z,102073.19
2022-08-30T15:10:56.483Z,102070.66
2022-08-30T15:15:58.270Z,102067.72
2022-08-30T15:21:00.522Z,102072.88
2022-08-30T15:26:02.643Z,102069.81
2022-08-30T15:31:08.557Z,102064.06
2022-08-30T15:36:12.163Z,102064.88
2022-08-30T15:41:15.013Z,102054.00
2022-08-30T15:46:29.609Z,102040.13
2022-08-30T15:51:38.827Z,102043.91
2022-08-30T15:56:44.521Z,102038.38
2022-08-30T16:01:47.730Z,102032.75
2022-08-30T16:06:50.004Z,102039.22
2022-08-30T16:11:51.963Z,102036.97
2022-08-30T16:16:55.239Z,102033.44
2022-08-30T16:21:57.665Z,102025.09
2022-08-30T16:26:59.577Z,102020.44
2022-08-30T16:32:02.371Z,102032.75
2022-08-30T16:37:04.191Z,102023.75
2022-08-30T16:42:08.006Z,102021.31
2022-08-30T16:47:13.360Z,102011.75
2022-08-30T16:52:16.198Z,102017.50
2022-08-30T16:57:19.963Z,102013.56
2022-08-30T17:02:22.381Z,102006.75
2022-08-30T17:07:24.173Z,102012.41
2022-08-30T17:12:26.311Z,102014.44
2022-08-30T17:17:28.003Z,102008.19
2022-08-30T17:22:35.182Z,102019.31
2022-08-30T17:27:37.699Z,102015.78
2022-08-30T17:32:39.685Z,102016.03
2022-08-30T17:37:42.281Z,102016.66
2022-08-30T17:42:45.315Z,102022.47
2022-08-30T17:47:48.260Z,102024.28
2022-08-30T17:52:50.342Z,102031.19
2022-08-30T17:58:16.186Z,102044.78
2022-08-30T18:03:17.968Z,102044.16
2022-08-30T18:08:21.709Z,102044.59
2022-08-30T18:13:28.562Z,102048.13
2022-08-30T18:18:32.612Z,102055.91
2022-08-30T18:23:35.431Z,102072.00
2022-08-30T18:28:41.277Z,102070.56
2022-08-30T18:33:43.078Z,102078.25
2022-08-30T18:38:45.523Z,102086.72
2022-08-30T18:44:01.805Z,102091.69
2022-08-30T18:49:16.414Z,102093.16
2022-08-30T18:54:25.425Z,102100.97
2022-08-30T18:59:35.242Z,102103.34
2022-08-30T19:04:43.398Z,102108.75
2022-08-30T19:09:48.901Z,102114.66
2022-08-30T19:14:51.130Z,102110.84
2022-08-30T19:19:53.697Z,102110.53
2022-08-30T19:24:55.483Z,102121.31
2022-08-30T19:29:58.212Z,102128.50
2022-08-30T19:35:00.211Z,102123.50
2022-08-30T19:40:09.138Z,102123.31
2022-08-30T19:45:12.855Z,102130.41
2022-08-30T19:50:15.860Z,102122.03
2022-08-30T19:55:17.739Z,102121.41
2022-08-30T20:00:25.586Z,102121.84
2022-08-30T20:05:27.415Z,102125.09
2022-08-30T20:10:36.386Z,102129.84
2022-08-30T20:15:38.517Z,102129.19
2022-08-30T20:20:40.212Z,102127.03
2022-08-30T20:25:41.997Z,102134.56
2022-08-30T20:30:43.737Z,102132.84
2022-08-30T20:35:49.044Z,102135.00
2022-08-30T20:40:54.112Z,102141.47
2022-08-30T20:45:56.473Z,102142.31
2022-08-30T20:50:58.424Z,102140.94
2022-08-30T20:56:00.359Z,102147.19
2022-08-30T21:01:02.163Z,102145.69
2022-08-30T21:06:04.192Z,102147.41
2022-08-30T21:11:06.460Z,102140.94
2022-08-30T21:16:08.282Z,102145.44
2022-08-30T21:21:21.397Z,102148.47
2022-08-30T21:26:24.220Z,102163.75
2022-08-30T21:31:30.374Z,102153.16
2022-08-30T21:36:47.494Z,102157.88
2022-08-30T21:41:53.400Z,102174.28
2022-08-30T21:46:55.400Z,102170.78
2022-08-30T21:51:57.183Z,102171.84
2022-08-30T21:57:00.684Z,102178.50
2022-08-30T22:02:02.480Z,102176.38
2022-08-30T22:07:06.596Z,102182.13
2022-08-30T22:12:08.407Z,102171.19
2022-08-30T22:17:10.127Z,102188.19
2022-08-30T22:22:13.395Z,102186.41
2022-08-30T22:27:15.140Z,102180.66
2022-08-30T22:32:16.831Z,102181.88
2022-08-30T22:37:19.648Z,102184.38
2022-08-30T22:46:20.452Z,102192.97
2022-08-30T22:51:34.411Z,102183.47
2022-08-30T22:56:38.170Z,102191.63
2022-08-30T23:01:43.814Z,102188.75
2022-08-30T23:06:50.052Z,102192.59
2022-08-30T23:11:51.894Z,102184.69
2022-08-30T23:16:53.705Z,102195.59
2022-08-30T23:21:55.584Z,102177.31
2022-08-30T23:27:15.837Z,102180.03
2022-08-30T23:32:36.826Z,102185.78
2022-08-30T23:37:57.235Z,102182.34
2022-08-30T23:43:17.728Z,102185.78
2022-08-30T23:48:38.045Z,102179.34
2022-08-30T23:53:58.577Z,102177.59
2022-08-30T23:59:18.892Z,102176.88
